| Date & Time | Wind Spd (mph) | Wind Dir (°) | Wind Gust (mph) | Wind Spd Sonic (mph) | Wind Dir Sonic (°) | Wind Gust Sonic (mph) |
|---|---|---|---|---|---|---|
| 5/5/26 - 2245 | 38.3 | N | 350 | 46.5 | 45.3 | N | 9 | 49.2 |
| 5/5/26 - 2240 | 39.0 | N | 350 | 47.5 | 46.0 | N | 10 | 50.8 |
| 5/5/26 - 2235 | 38.4 | N | 350 | 46.3 | 45.1 | N | 7 | 49.7 |
| 5/5/26 - 2230 | 39.3 | N | 350 | 48.0 | 42.4 | N | 8 | 49.2 |
| 5/5/26 - 2225 | 38.2 | N | 350 | 45.7 | 43.1 | N | 4 | 47.4 |
| 5/5/26 - 2220 | 38.2 | N | 350 | 47.1 | 45.9 | N | 6 | 52.1 |
| Max | 39.3 | - | 48.0 | 46.0 | - | 52.1 |
| Avg | 38.6 | - | 46.9 | 44.6 | - | 49.7 |
| Min | 38.2 | - | 45.7 | 42.4 | - | 47.4 |
| Wind Spd | 38.6 mph 27.6 |
|---|---|
| Wind Spd Sonic | 45.4 mph 32.8 |
| Wind Dir | N | 350 ° |
| Wind Dir Sonic | N | 9 ° |
| Wind Gust | 47.5 mph 30.9 |
| Wind Gust Sonic | 50.8 mph 34.7 |
| Temp | 27.7 °F 3.4 |
| WindChill | 9.3 °F 3.0 |
| RH | 100 % 1 |
| Dew Pt | 27.7 °F 3.7 |
| Wet Bulb | 27.6 °F 3.5 |
| Daily Max Wind | 52.6 mph 15.5 |
| Time of Max Wind | 2014 |
| Max Wind Dir | N | 350 ° |
| Daily Max Gust Sonic | 52.1 mph 13.9 |
| Time Wind Max Sonic | 2218 |
| Dir Max Gust Sonic | N | 0 Degrees |
| Daily Max Temp | 28.7 °F 0.9 |
| Daily Min Temp | 22.5 °F 0.1 |
| Yest MaxT | 29.6 °F |
| Yest MinT | 22.4 °F |
| Yest MaxGst | 37.0 mph |
| Date & Time | Temp (°F) | WindChill (°F) | RH (%) | Dew Pt (°F) | Wet Bulb (°F) | Wind Spd (mph) | Wind Spd Sonic (mph) | Wind Dir (°) | Wind Dir Sonic (°) | Wind Gust (mph) | Wind Gust Sonic (mph) | Daily Min Temp (°F) | Daily Max Temp (°F) | Daily Max Wind (mph) | Daily Max Gust Sonic (mph) |
|---|---|---|---|---|---|---|---|---|---|---|---|---|---|---|---|
| 5/5/26 - 2245 | 27.7 | 9.3 | 100 | 27.7 | 27.6 | 38.6 | 45.4 | N | 350 | N | 9 | 47.5 | 50.8 | 22.5 | 28.7 | 52.6 | 52.1 |
| 5/5/26 - 2230 | 27.7 | 9.2 | 100 | 27.7 | 27.5 | 38.6 | 43.8 | N | 350 | N | 6 | 48.0 | 52.1 | 22.5 | 28.7 | 52.6 | 52.1 |
| 5/5/26 - 2215 | 27.7 | 9.1 | 100 | 27.7 | 27.5 | 38.6 | 46.8 | N | 350 | N | 10 | 49.6 | 51.7 | 22.5 | 28.7 | 52.6 | 51.7 |
| 5/5/26 - 2200 | 27.7 | 9.2 | 100 | 27.7 | 27.6 | 38.2 | 45.3 | N | 350 | N | 8 | 49.6 | 51.2 | 22.5 | 28.7 | 52.6 | 51.2 |
| 5/5/26 - 2145 | 27.9 | 9.6 | 100 | 27.9 | 27.8 | 38.2 | 45.8 | N | 350 | N | 6 | 48.1 | 50.6 | 22.5 | 28.7 | 52.6 | 50.6 |
| 5/5/26 - 2130 | 28.1 | 10.0 | 100 | 28.1 | 28.0 | 37.7 | 44.5 | N | 350 | N | 2 | 46.1 | 49.4 | 22.5 | 28.7 | 52.6 | 49.4 |
| 5/5/26 - 2115 | 28.5 | 10.6 | 100 | 28.5 | 28.3 | 36.8 | 42.5 | N | 350 | N | 2 | 46.3 | 47.2 | 22.5 | 28.7 | 52.6 | 47.2 |
| 5/5/26 - 2100 | 28.5 | 11.0 | 100 | 28.5 | 28.4 | 35.8 | 41.9 | N | 350 | N | 3 | 43.7 | 45.9 | 22.5 | 28.7 | 52.6 | 46.5 |
| 5/5/26 - 2045 | 28.6 | 11.0 | 100 | 28.6 | 28.5 | 35.8 | 42.4 | N | 350 | N | 3 | 44.4 | 46.5 | 22.5 | 28.7 | 52.6 | 46.5 |
| 5/5/26 - 2030 | 28.5 | 10.7 | 100 | 28.5 | 28.4 | 36.0 | 40.7 | N | 350 | N | 3 | 47.1 | 46.5 | 22.5 | 28.6 | 52.6 | 46.5 |
| 5/5/26 - 2015 | 28.4 | 10.1 | 100 | 28.4 | 28.3 | 35.5 | 39.6 | N | 350 | N | 1 | 52.6 | 45.0 | 22.5 | 28.5 | 52.6 | 45.2 |
| 5/5/26 - 2000 | 28.1 | 10.6 | 100 | 28.1 | 28.0 | 33.5 | 38.9 | N | 350 | N | 0 | 43.8 | 45.2 | 22.5 | 28.3 | 46.6 | 45.2 |
| 5/5/26 - 1945 | 28.0 | 10.6 | 100 | 28.0 | 27.8 | 31.7 | 37.1 | N | 350 | N | 2 | 43.7 | 41.2 | 22.5 | 28.0 | 46.6 | 41.6 |
| 5/5/26 - 1930 | 27.8 | 10.0 | 100 | 27.8 | 27.6 | 32.3 | 36.9 | N | 350 | N | 4 | 46.6 | 41.6 | 22.5 | 28.0 | 46.6 | 41.6 |
| 5/5/26 - 1915 | 27.4 | 10.4 | 100 | 27.4 | 27.3 | 29.6 | 32.5 | N | 350 | N | 1 | 39.8 | 38.9 | 22.5 | 28.0 | 45.3 | 41.4 |
| 5/5/26 - 1900 | 26.7 | 8.9 | 100 | 26.7 | 26.6 | 29.1 | 29.5 | N | 350 | N | 2 | 45.2 | 36.7 | 22.5 | 28.0 | 45.3 | 41.4 |
| 5/5/26 - 1845 | 26.5 | 9.0 | 100 | 26.4 | 26.3 | 28.3 | 29.7 | N | 350 | N | 1 | 42.3 | 34.9 | 22.5 | 28.0 | 45.3 | 41.4 |
| 5/5/26 - 1830 | 26.7 | 9.9 | 100 | 26.7 | 26.6 | 27.2 | 28.4 | N | 350 | N | 358 | 37.0 | 33.8 | 22.5 | 28.0 | 45.3 | 41.4 |
| 5/5/26 - 1815 | 27.1 | 11.8 | 100 | 27.1 | 27.0 | 21.9 | 24.3 | N | 350 | N | 7 | 31.3 | 30.4 | 22.5 | 28.0 | 45.3 | 41.4 |
| 5/5/26 - 1800 | 27.5 | 12.5 | 100 | 27.5 | 27.4 | 21.3 | 23.5 | N | 350 | N | 7 | 30.0 | 28.4 | 22.5 | 28.0 | 45.3 | 41.4 |
| 5/5/26 - 1745 | 27.7 | 13.3 | 100 | 27.7 | 27.6 | 19.7 | 19.9 | N | 350 | NNE | 12 | 28.1 | 24.8 | 22.5 | 28.0 | 45.3 | 41.4 |
| 5/5/26 - 1730 | 27.5 | 13.8 | 100 | 27.5 | 27.4 | 17.9 | 21.1 | N | 350 | N | 9 | 24.2 | 24.4 | 22.5 | 27.9 | 45.3 | 41.4 |
| 5/5/26 - 1715 | 27.6 | 13.6 | 100 | 27.6 | 27.4 | 18.7 | 21.5 | N | 350 | N | 11 | 25.1 | 26.6 | 22.5 | 27.9 | 45.3 | 41.4 |
| 5/5/26 - 1700 | 27.2 | 13.8 | 100 | 27.2 | 27.1 | 16.8 | 21.6 | N | 350 | N | 8 | 22.8 | 25.3 | 22.5 | 27.4 | 45.3 | 41.4 |
| 5/5/26 - 1645 | 27.1 | 12.9 | 100 | 27.1 | 26.9 | 17.1 | 22.1 | N | 350 | N | 360 | 26.9 | 28.4 | 22.5 | 27.4 | 45.3 | 41.4 |
| 5/5/26 - 1630 | 26.7 | 11.9 | 100 | 26.7 | 26.6 | 18.2 | 22.4 | N | 350 | N | 3 | 29.9 | 28.2 | 22.5 | 27.4 | 45.3 | 41.4 |
| 5/5/26 - 1615 | 26.1 | 11.9 | 100 | 26.1 | 26.0 | 17.4 | 22.9 | N | 350 | N | 2 | 25.0 | 27.7 | 22.5 | 27.4 | 45.3 | 41.4 |
| 5/5/26 - 1600 | 25.3 | 10.4 | 99 | 25.2 | 25.1 | 19.1 | 25.8 | N | 350 | N | 4 | 26.5 | 32.2 | 22.5 | 27.4 | 45.3 | 41.4 |
| 5/5/26 - 1545 | 25.4 | 10.3 | 99 | 25.2 | 25.2 | 19.9 | 26.2 | N | 350 | N | 5 | 26.9 | 31.5 | 22.5 | 27.4 | 45.3 | 41.4 |
| 5/5/26 - 1530 | 26.1 | 9.2 | 100 | 26.0 | 25.9 | 24.2 | 27.5 | N | 350 | N | 5 | 39.1 | 34.2 | 22.5 | 27.4 | 45.3 | 41.4 |
| 5/5/26 - 1515 | 26.5 | 8.6 | 100 | 26.5 | 26.4 | 29.7 | 31.5 | N | 350 | N | 359 | 45.3 | 37.8 | 22.5 | 27.4 | 45.3 | 41.4 |
| 5/5/26 - 1500 | 27.2 | 10.5 | 100 | 27.2 | 27.1 | 25.0 | 26.7 | N | 349 | N | 5 | 40.3 | 35.3 | 22.5 | 27.4 | 44.6 | 41.4 |
| 5/5/26 - 1445 | 26.6 | 11.4 | 100 | 26.5 | 26.4 | 20.6 | 23.4 | N | 350 | N | 10 | 29.9 | 30.9 | 22.5 | 27.3 | 44.6 | 41.4 |
| 5/5/26 - 1430 | 26.9 | 11.2 | 100 | 26.9 | 26.8 | 23.6 | 27.0 | N | 350 | NNE | 17 | 31.6 | 32.9 | 22.5 | 27.3 | 44.6 | 41.4 |
| 5/5/26 - 1415 | 26.8 | 10.5 | 100 | 26.8 | 26.6 | 23.8 | 25.8 | N | 350 | N | 10 | 36.1 | 32.0 | 22.5 | 27.3 | 44.6 | 41.4 |
| 5/5/26 - 1400 | 27.0 | 10.9 | 100 | 27.0 | 26.9 | 24.9 | 24.0 | N | 350 | NNE | 18 | 34.7 | 31.3 | 22.5 | 27.3 | 44.6 | 41.4 |
| 5/5/26 - 1345 | 26.6 | 9.2 | 100 | 26.5 | 26.4 | 28.4 | 28.8 | N | 350 | NNE | 19 | 41.2 | 36.2 | 22.5 | 26.9 | 44.6 | 41.4 |
| 5/5/26 - 1330 | 26.2 | 8.2 | 100 | 26.1 | 26.0 | 30.2 | 29.9 | N | 350 | NNE | 16 | 44.6 | 41.4 | 22.5 | 26.4 | 44.6 | 41.4 |
| 5/5/26 - 1315 | 25.9 | 8.5 | 99 | 25.8 | 25.7 | 28.9 | 31.2 | N | 350 | N | 4 | 38.4 | 39.8 | 22.5 | 26.2 | 43.7 | 40.3 |
| 5/5/26 - 1300 | 25.8 | 7.8 | 99 | 25.7 | 25.7 | 30.7 | 30.6 | N | 350 | NNE | 12 | 43.7 | 39.6 | 22.5 | 26.1 | 43.7 | 40.3 |
| 5/5/26 - 1245 | 25.8 | 7.8 | 99 | 25.6 | 25.6 | 30.8 | 30.3 | N | 350 | NNE | 14 | 42.5 | 38.0 | 22.5 | 26.0 | 42.5 | 40.3 |
| 5/5/26 - 1230 | 25.8 | 7.9 | 100 | 25.7 | 25.7 | 30.7 | 30.7 | N | 350 | N | 10 | 41.7 | 40.3 | 22.5 | 26.0 | 41.7 | 40.3 |
| 5/5/26 - 1215 | 25.2 | 7.9 | 99 | 25.0 | 25.0 | 27.3 | 28.3 | N | 350 | N | 0 | 37.1 | 35.1 | 22.5 | 25.8 | 37.1 | 35.1 |
| 5/5/26 - 1200 | 25.0 | 7.7 | 99 | 24.8 | 24.8 | 26.3 | 26.3 | N | 350 | N | 360 | 37.0 | 31.5 | 22.5 | 25.4 | 37.0 | 34.7 |
| 5/5/26 - 1145 | 25.0 | 8.1 | 99 | 24.7 | 24.8 | 23.8 | 25.0 | N | 350 | N | 5 | 36.2 | 31.3 | 22.5 | 25.4 | 36.2 | 34.7 |
| 5/5/26 - 1130 | 24.8 | 7.9 | 99 | 24.5 | 24.6 | 24.4 | 23.7 | N | 349 | N | 6 | 34.8 | 32.7 | 22.5 | 25.0 | 34.8 | 34.7 |
| 5/5/26 - 1115 | 24.8 | 8.4 | 99 | 24.5 | 24.5 | 22.9 | 21.8 | N | 350 | NNE | 14 | 31.4 | 26.0 | 22.5 | 25.0 | 33.5 | 34.7 |
| 5/5/26 - 1100 | 24.6 | 8.0 | 99 | 24.2 | 24.3 | 22.8 | 23.0 | N | 350 | N | 4 | 32.9 | 30.2 | 22.5 | 24.7 | 33.5 | 34.7 |
| 5/5/26 - 1045 | 24.4 | 7.7 | 99 | 24.1 | 24.2 | 23.3 | 24.7 | N | 350 | N | 10 | 33.4 | 31.3 | 22.5 | 24.7 | 33.5 | 34.7 |
| 5/5/26 - 1030 | 24.3 | 7.8 | 98 | 24.0 | 24.0 | 22.2 | 20.9 | N | 349 | N | 10 | 32.8 | 32.2 | 22.5 | 24.4 | 33.5 | 34.7 |
| 5/5/26 - 1015 | 24.3 | 8.1 | 99 | 23.9 | 24.0 | 21.8 | 20.9 | N | 350 | NNE | 12 | 29.9 | 25.0 | 22.5 | 24.4 | 33.5 | 34.7 |
| 5/5/26 - 1000 | 24.1 | 7.7 | 98 | 23.7 | 23.8 | 21.8 | 20.7 | N | 350 | N | 11 | 31.1 | 25.5 | 22.5 | 24.4 | 33.5 | 34.7 |
| 5/5/26 - 0945 | 23.8 | 7.1 | 98 | 23.4 | 23.5 | 23.3 | 23.8 | N | 350 | NNE | 14 | 31.1 | 31.3 | 22.5 | 24.3 | 33.5 | 34.7 |
| 5/5/26 - 0930 | 23.6 | 6.6 | 98 | 23.2 | 23.4 | 23.5 | 26.3 | N | 350 | N | 3 | 33.5 | 33.1 | 22.5 | 24.3 | 33.5 | 34.7 |
| 5/5/26 - 0915 | 23.6 | 7.0 | 98 | 23.2 | 23.4 | 20.3 | 22.6 | NNW | 347 | N | 358 | 33.5 | 34.7 | 22.5 | 24.3 | 33.5 | 34.7 |
| 5/5/26 - 0900 | 23.5 | 10.0 | 98 | 23.1 | 23.2 | 12.3 | 15.8 | N | 350 | NNW | 344 | 21.5 | 20.6 | 22.5 | 24.3 | 21.5 | 21.7 |
| 5/5/26 - 0845 | 23.5 | 12.4 | 98 | 23.0 | 23.2 | 2.9 | 12.4 | N | 350 | NNW | 332 | 19.9 | 20.8 | 22.5 | 24.3 | 19.9 | 21.7 |
| 5/5/26 - 0830 | 23.8 | 13.8 | 98 | 23.4 | 23.5 | 5.2 | 10.9 | N | 350 | NNW | 340 | 14.1 | 15.7 | 22.5 | 24.3 | 17.0 | 21.7 |
| 5/5/26 - 0815 | 23.9 | - | 98 | 23.5 | 23.6 | 0.9 | 7.8 | N | 350 | WNW | 300 | 4.2 | 18.1 | 22.5 | 24.3 | 17.0 | 21.7 |
| 5/5/26 - 0800 | 23.7 | 16.5 | 98 | 23.3 | 23.5 | 1.5 | 10.6 | N | 350 | NNW | 331 | 10.2 | 17.0 | 22.5 | 23.9 | 17.0 | 21.7 |
| 5/5/26 - 0745 | 23.6 | 16.2 | 98 | 23.2 | 23.3 | 2.0 | 10.9 | N | 350 | NW | 317 | 10.2 | 21.7 | 22.5 | 23.8 | 17.0 | 21.7 |
| 5/5/26 - 0730 | 23.2 | 18.1 | 98 | 22.8 | 23.0 | 2.3 | 10.2 | N | 350 | WNW | 286 | 5.4 | 20.6 | 22.5 | 23.7 | 17.0 | 21.5 |
| 5/5/26 - 0715 | 22.9 | 19.0 | 98 | 22.4 | 22.6 | 2.2 | 8.8 | N | 350 | SW | 221 | 3.8 | 16.1 | 22.5 | 23.7 | 17.0 | 21.5 |
| 5/5/26 - 0700 | 22.9 | 17.4 | 98 | 22.4 | 22.6 | 2.5 | 8.1 | N | 350 | SW | 218 | 5.6 | 20.1 | 22.5 | 23.7 | 17.0 | 21.5 |
| 5/5/26 - 0645 | 22.7 | 15.8 | 98 | 22.1 | 22.4 | 4.3 | 8.2 | N | 350 | SW | 217 | 6.3 | 16.8 | 22.5 | 23.7 | 17.0 | 21.5 |
| 5/5/26 - 0630 | 22.6 | 15.6 | 98 | 22.0 | 22.2 | 4.4 | 8.2 | N | 350 | SW | 217 | 6.2 | 10.1 | 22.5 | 23.7 | 17.0 | 21.5 |
| 5/5/26 - 0615 | 22.5 | 12.6 | 98 | 21.9 | 22.2 | 7.7 | 11.3 | N | 350 | SSW | 212 | 10.2 | 15.0 | 22.5 | 23.7 | 17.0 | 21.5 |
| 5/5/26 - 0600 | 22.6 | 13.2 | 98 | 22.0 | 22.3 | 7.0 | 10.5 | N | 350 | SSW | 212 | 9.5 | 13.0 | 22.5 | 23.7 | 17.0 | 21.5 |
| 5/5/26 - 0545 | 22.6 | 14.3 | 98 | 22.0 | 22.3 | 4.8 | 10.4 | N | 350 | SW | 221 | 8.9 | 21.5 | 22.5 | 23.7 | 17.0 | 21.5 |
| 5/5/26 - 0530 | 22.6 | 14.9 | 98 | 22.1 | 22.3 | 4.7 | 10.4 | N | 350 | SW | 220 | 7.7 | 19.7 | 22.5 | 23.7 | 17.0 | 19.7 |
| 5/5/26 - 0515 | 22.6 | 15.1 | 98 | 22.1 | 22.3 | 4.3 | 8.5 | N | 350 | SW | 217 | 7.6 | 15.4 | 22.5 | 23.7 | 17.0 | 19.7 |
| 5/5/26 - 0500 | 22.6 | 14.5 | 98 | 22.0 | 22.3 | 5.3 | 9.2 | N | 350 | SW | 216 | 8.0 | 18.1 | 22.5 | 23.7 | 17.0 | 19.7 |
| 5/5/26 - 0445 | 22.6 | 12.8 | 98 | 22.0 | 22.3 | 7.1 | 11.1 | N | 350 | SW | 218 | 10.7 | 19.7 | 22.5 | 23.7 | 17.0 | 19.7 |
| 5/5/26 - 0430 | 22.6 | 12.6 | 98 | 22.0 | 22.3 | 7.8 | 11.0 | N | 350 | SSW | 213 | 10.6 | 16.3 | 22.5 | 23.7 | 17.0 | 17.9 |
| 5/5/26 - 0415 | 22.6 | 10.3 | 98 | 22.0 | 22.3 | 10.8 | 13.9 | N | 350 | SSW | 211 | 15.6 | 16.3 | 22.5 | 23.7 | 17.0 | 17.9 |
| 5/5/26 - 0400 | 22.5 | 9.7 | 98 | 22.0 | 22.2 | 12.6 | 15.3 | N | 350 | SSW | 211 | 16.2 | 17.2 | 22.5 | 23.7 | 17.0 | 17.9 |
| 5/5/26 - 0345 | 22.6 | 9.6 | 98 | 22.0 | 22.3 | 13.0 | 15.7 | N | 350 | SSW | 212 | 17.0 | 17.9 | 22.5 | 23.7 | 17.0 | 17.9 |
| 5/5/26 - 0330 | 22.8 | 10.3 | 98 | 22.2 | 22.5 | 11.8 | 14.0 | N | 350 | SW | 216 | 16.0 | 16.1 | 22.7 | 23.7 | 16.7 | 17.4 |
| 5/5/26 - 0315 | 22.9 | 10.7 | 98 | 22.3 | 22.6 | 11.4 | 13.4 | N | 350 | SW | 216 | 15.0 | 15.9 | 22.7 | 23.7 | 16.7 | 17.4 |
| 5/5/26 - 0300 | 23.0 | 10.6 | 98 | 22.5 | 22.8 | 12.0 | 13.8 | N | 350 | SW | 215 | 16.1 | 16.1 | 22.9 | 23.7 | 16.7 | 17.4 |
| 5/5/26 - 0245 | 23.1 | 11.2 | 98 | 22.6 | 22.8 | 10.8 | 13.2 | N | 350 | SSW | 213 | 14.4 | 15.4 | 23.0 | 23.7 | 16.7 | 17.4 |
| 5/5/26 - 0230 | 23.1 | 11.3 | 98 | 22.6 | 22.8 | 10.6 | 12.9 | N | 350 | SW | 214 | 14.4 | 15.7 | 23.0 | 23.7 | 16.7 | 17.4 |
| 5/5/26 - 0215 | 23.1 | 11.4 | 98 | 22.5 | 22.8 | 10.4 | 12.6 | N | 350 | SW | 215 | 14.3 | 15.0 | 23.0 | 23.7 | 16.7 | 17.4 |
| 5/5/26 - 0200 | 23.3 | 10.8 | 98 | 22.8 | 23.0 | 11.8 | 13.9 | N | 350 | SSW | 213 | 16.7 | 17.2 | 23.1 | 23.7 | 16.7 | 17.4 |
| 5/5/26 - 0145 | 23.3 | 11.1 | 98 | 22.8 | 23.0 | 11.6 | 13.7 | N | 350 | SSW | 212 | 15.4 | 17.4 | 23.1 | 23.7 | 16.2 | 17.4 |
| 5/5/26 - 0130 | 23.4 | 10.9 | 98 | 22.9 | 23.1 | 12.2 | 14.1 | N | 350 | SSW | 212 | 16.2 | 16.6 | 23.2 | 23.7 | 16.2 | 16.6 |
| 5/5/26 - 0115 | 23.5 | 11.2 | 98 | 23.1 | 23.3 | 11.9 | 13.7 | N | 350 | SSW | 209 | 16.1 | 15.7 | 23.4 | 23.7 | 16.1 | 15.7 |
| 5/5/26 - 0100 | 23.3 | 11.6 | 98 | 22.8 | 23.0 | 10.6 | 13.0 | N | 350 | SSW | 204 | 14.5 | 15.2 | 22.4 | 29.6 | 37.0 | 38.2 |
| 5/5/26 - 0045 | 23.4 | 12.4 | 98 | 22.9 | 23.1 | 9.5 | 12.4 | N | 350 | SSW | 210 | 13.2 | 15.0 | 22.4 | 29.6 | 37.0 | 38.2 |
| 5/5/26 - 0030 | 23.5 | 13.4 | 98 | 23.0 | 23.2 | 8.3 | 11.0 | N | 350 | SSW | 210 | 11.2 | 14.1 | 22.4 | 29.6 | 37.0 | 38.2 |
| 5/5/26 - 0015 | 23.6 | 14.9 | 98 | 23.1 | 23.3 | 6.4 | 9.6 | N | 350 | SW | 214 | 8.8 | 13.4 | 22.4 | 29.6 | 37.0 | 38.2 |
| 5/5/26 - 0000 | 23.7 | 16.0 | 98 | 23.2 | 23.4 | 4.8 | 8.6 | N | 350 | SW | 220 | 8.0 | 13.9 | 22.4 | 29.6 | 37.0 | 38.2 |
| 5/4/26 - 2345 | 23.7 | 16.4 | 98 | 23.2 | 23.4 | 5.0 | 13.1 | N | 350 | SW | 231 | 6.8 | 22.6 | 22.4 | 29.6 | 37.0 | 38.2 |
| 5/4/26 - 2330 | 23.8 | 16.7 | 98 | 23.4 | 23.5 | 4.3 | 7.9 | N | 350 | SW | 215 | 7.1 | 16.8 | 22.4 | 29.6 | 37.0 | 38.2 |
| 5/4/26 - 2315 | 23.8 | 15.0 | 98 | 23.3 | 23.5 | 6.4 | 9.8 | N | 350 | SSW | 212 | 9.0 | 12.5 | 22.4 | 29.6 | 37.0 | 38.2 |
| 5/4/26 - 2300 | 24.2 | 13.0 | 98 | 23.8 | 24.0 | 9.7 | 11.9 | N | 350 | SSW | 211 | 14.4 | 15.2 | 22.4 | 29.6 | 37.0 | 38.2 |
| 5/4/26 - 2245 | 24.4 | 12.3 | 99 | 24.0 | 24.1 | 10.9 | 12.7 | N | 350 | SSW | 206 | 16.6 | 16.1 | 22.4 | 29.6 | 37.0 | 38.2 |
| Max | 28.6 | 19.0 | 100 | 28.6 | 28.5 | 38.6 | 46.8 | - | - | 52.6 | 52.1 | 23.4 | 29.6 | 52.6 | 52.1 |
| Avg | 25.1 | 11.3 | 99 | 24.8 | 24.8 | 18.6 | 21.9 | - | - | 26.3 | 27.7 | - | - | - | - |
| Min | 22.5 | 6.6 | 98 | 21.9 | 22.2 | 0.9 | 7.8 | - | - | 3.8 | 10.1 | 22.4 | 23.7 | 16.1 | 15.7 |